createdAt,value
2023-04-10T00:00:58.454Z,2.68
2023-04-10T00:01:58.647Z,2.71
2023-04-10T00:02:58.519Z,2.87
2023-04-10T00:03:58.702Z,2.85
2023-04-10T00:04:58.537Z,2.86
2023-04-10T00:05:58.578Z,2.97
2023-04-10T00:06:58.417Z,2.90
2023-04-10T00:07:58.413Z,2.89
2023-04-10T00:08:58.393Z,2.80
2023-04-10T00:09:58.434Z,2.72
2023-04-10T00:10:58.416Z,2.79
2023-04-10T00:11:58.411Z,2.77
2023-04-10T00:12:58.352Z,2.83
2023-04-10T00:13:58.393Z,2.93
2023-04-10T00:14:58.360Z,2.79
2023-04-10T00:15:58.374Z,2.71
2023-04-10T00:16:58.382Z,2.56
2023-04-10T00:17:58.387Z,2.67
2023-04-10T00:18:58.356Z,2.61
2023-04-10T00:19:58.349Z,2.51
2023-04-10T00:20:58.310Z,2.50
2023-04-10T00:21:58.340Z,2.56
2023-04-10T00:22:58.357Z,2.57
2023-04-10T00:23:58.339Z,2.64
2023-04-10T00:24:58.343Z,2.60
2023-04-10T00:25:58.309Z,2.61
2023-04-10T00:26:58.272Z,2.61
2023-04-10T00:27:58.297Z,2.61
2023-04-10T00:28:58.284Z,2.67
2023-04-10T00:29:58.279Z,2.64
2023-04-10T00:30:58.269Z,2.65
2023-04-10T00:31:58.344Z,2.69
2023-04-10T00:32:58.279Z,2.68
2023-04-10T00:33:58.258Z,2.74
2023-04-10T00:34:58.220Z,2.80
2023-04-10T00:35:58.253Z,2.77
2023-04-10T00:36:58.216Z,2.69
2023-04-10T00:37:58.238Z,2.79
2023-04-10T00:38:58.233Z,2.68
2023-04-10T00:39:58.209Z,2.75
2023-04-10T00:40:58.213Z,2.65
2023-04-10T00:41:58.193Z,2.60
2023-04-10T00:42:58.179Z,2.62
2023-04-10T00:43:58.185Z,2.57
2023-04-10T00:44:58.166Z,2.54
2023-04-10T00:45:58.263Z,2.57
2023-04-10T00:46:58.155Z,2.25
2023-04-10T00:47:58.221Z,2.24
2023-04-10T00:48:58.136Z,2.17
2023-04-10T00:49:58.140Z,2.20
2023-04-10T00:50:58.122Z,2.15
2023-04-10T00:51:58.755Z,2.08
2023-04-10T00:52:58.125Z,2.06
2023-04-10T00:53:58.133Z,1.85
2023-04-10T00:54:58.110Z,1.84
2023-04-10T00:55:58.107Z,1.77
2023-04-10T00:56:58.143Z,1.74
2023-04-10T00:57:58.109Z,1.81
2023-04-10T00:58:58.080Z,1.81
2023-04-10T00:59:58.084Z,1.77
2023-04-10T01:00:58.150Z,1.89
2023-04-10T01:01:58.182Z,1.92
2023-04-10T01:02:58.186Z,1.91
2023-04-10T01:03:58.668Z,1.87
2023-04-10T01:04:58.067Z,1.89
2023-04-10T01:05:58.065Z,1.74
2023-04-10T01:06:58.040Z,1.80
2023-04-10T01:07:58.070Z,1.81
2023-04-10T01:08:58.014Z,1.85
2023-04-10T01:09:58.057Z,1.76
2023-04-10T01:10:58.020Z,1.71
2023-04-10T01:11:58.036Z,1.80
2023-04-10T01:12:58.008Z,1.80
2023-04-10T01:13:58.001Z,1.77
2023-04-10T01:14:57.992Z,1.76
2023-04-10T01:15:57.990Z,1.68
2023-04-10T01:16:58.000Z,1.78
2023-04-10T01:17:58.008Z,1.62
2023-04-10T01:18:57.943Z,1.71
2023-04-10T01:19:57.950Z,1.62
2023-04-10T01:20:57.932Z,1.56
2023-04-10T01:21:57.949Z,1.62
2023-04-10T01:22:57.952Z,1.62
2023-04-10T01:23:57.949Z,1.63
2023-04-10T01:24:57.916Z,1.56
2023-04-10T01:25:57.914Z,1.60
2023-04-10T01:26:57.891Z,1.55
2023-04-10T01:27:57.943Z,1.62
2023-04-10T01:28:57.886Z,1.55
2023-04-10T01:29:57.888Z,1.67
2023-04-10T01:30:57.941Z,1.56
2023-04-10T01:31:57.884Z,1.60
2023-04-10T01:32:57.914Z,1.63
2023-04-10T01:33:57.912Z,1.66
2023-04-10T01:34:57.854Z,1.66
2023-04-10T01:35:57.883Z,1.58
2023-04-10T01:36:57.853Z,1.62
2023-04-10T01:37:57.840Z,1.53
2023-04-10T01:38:57.813Z,1.52
2023-04-10T01:39:57.849Z,1.49
2023-04-10T01:40:57.819Z,1.55
2023-04-10T01:41:57.814Z,1.49
2023-04-10T01:42:57.812Z,1.58
2023-04-10T01:43:57.800Z,1.53
2023-04-10T01:44:57.769Z,1.62
2023-04-10T01:45:57.922Z,1.55
2023-04-10T01:46:57.775Z,1.55
2023-04-10T01:47:57.875Z,1.62
2023-04-10T01:48:57.798Z,1.66
2023-04-10T01:49:57.770Z,1.62
2023-04-10T01:50:57.720Z,1.68
2023-04-10T01:51:57.741Z,1.70
2023-04-10T01:52:57.738Z,1.63
2023-04-10T01:53:57.750Z,1.66
2023-04-10T01:54:57.742Z,1.63
2023-04-10T01:55:57.737Z,1.66
2023-04-10T01:56:57.735Z,1.48
2023-04-10T01:57:57.703Z,1.45
2023-04-10T01:58:57.677Z,1.45
2023-04-10T01:59:57.687Z,1.40
2023-04-10T02:00:57.681Z,1.41
2023-04-10T02:01:57.764Z,1.42
2023-04-10T02:02:57.798Z,1.42
2023-04-10T02:03:58.129Z,1.30
2023-04-10T02:04:57.659Z,1.42
2023-04-10T02:05:57.665Z,1.42
2023-04-10T02:06:57.638Z,1.40
2023-04-10T02:07:57.668Z,1.30
2023-04-10T02:08:57.608Z,1.23
2023-04-10T02:09:57.624Z,1.14
2023-04-10T02:10:57.629Z,1.06
2023-04-10T02:11:57.648Z,0.96
2023-04-10T02:12:57.597Z,1.01
2023-04-10T02:13:57.638Z,0.84
2023-04-10T02:14:57.639Z,0.94
2023-04-10T02:15:57.702Z,0.86
2023-04-10T02:16:57.579Z,0.77
2023-04-10T02:17:57.633Z,0.78
2023-04-10T02:18:57.587Z,0.60
2023-04-10T02:19:57.581Z,0.69
2023-04-10T02:20:57.606Z,0.59
2023-04-10T02:21:57.608Z,0.73
2023-04-10T02:22:57.606Z,0.73
2023-04-10T02:23:57.584Z,0.63
2023-04-10T02:24:57.503Z,0.80
2023-04-10T02:25:57.592Z,0.91
2023-04-10T02:26:57.509Z,1.14
2023-04-10T02:27:57.539Z,1.30
2023-04-10T02:28:57.480Z,1.19
2023-04-10T02:29:57.512Z,1.06
2023-04-10T02:30:57.496Z,0.98
2023-04-10T02:31:57.520Z,0.96
2023-04-10T02:32:57.492Z,0.91
2023-04-10T02:33:57.472Z,0.70
2023-04-10T02:34:57.440Z,0.66
2023-04-10T02:35:57.472Z,0.77
2023-04-10T02:36:57.419Z,0.94
2023-04-10T02:37:57.445Z,1.05
2023-04-10T02:38:57.430Z,1.12
2023-04-10T02:39:57.416Z,1.19
2023-04-10T02:40:57.425Z,1.17
2023-04-10T02:41:57.397Z,1.06
2023-04-10T02:42:57.385Z,1.02
2023-04-10T02:43:57.405Z,0.94
2023-04-10T02:44:57.371Z,0.99
2023-04-10T02:45:57.405Z,0.86
2023-04-10T02:46:57.387Z,0.92
2023-04-10T02:47:57.414Z,0.94
2023-04-10T02:48:57.346Z,1.04
2023-04-10T02:49:57.353Z,1.05
2023-04-10T02:50:57.348Z,0.92
2023-04-10T02:51:57.329Z,0.96
2023-04-10T02:52:57.333Z,0.91
2023-04-10T02:53:57.353Z,0.94
2023-04-10T02:54:57.323Z,1.01
2023-04-10T02:55:57.345Z,1.01
2023-04-10T02:56:57.302Z,0.81
2023-04-10T02:57:57.302Z,0.80
2023-04-10T02:58:57.276Z,0.77
2023-04-10T02:59:57.277Z,0.81
2023-04-10T03:00:57.257Z,0.78
2023-04-10T03:01:57.387Z,0.94
2023-04-10T03:02:57.326Z,0.86
2023-04-10T03:03:57.722Z,0.86
2023-04-10T03:04:57.311Z,0.92
2023-04-10T03:05:57.251Z,0.78
2023-04-10T03:06:57.269Z,0.78
2023-04-10T03:07:57.255Z,0.78
2023-04-10T03:08:57.207Z,0.74
2023-04-10T03:09:57.234Z,0.68
2023-04-10T03:10:57.204Z,0.73
2023-04-10T03:11:57.228Z,0.62
2023-04-10T03:12:57.216Z,0.58
2023-04-10T03:13:57.205Z,0.52
2023-04-10T03:14:57.176Z,0.46
2023-04-10T03:15:57.254Z,0.43
2023-04-10T03:16:57.164Z,0.41
2023-04-10T03:17:57.226Z,0.37
2023-04-10T03:18:57.177Z,0.22
2023-04-10T03:19:57.156Z,0.16
2023-04-10T03:20:57.153Z,0.21
2023-04-10T03:21:57.162Z,0.22
2023-04-10T03:22:57.117Z,0.08
2023-04-10T03:23:57.149Z,0.07
2023-04-10T03:24:57.122Z,0.07
2023-04-10T03:25:57.135Z,0.10
2023-04-10T03:26:57.096Z,0.12
2023-04-10T03:27:57.119Z,0.10
2023-04-10T03:28:57.088Z,0.10
2023-04-10T03:29:57.093Z,0.10
2023-04-10T03:30:57.081Z,0.08
2023-04-10T03:31:57.190Z,0.22
2023-04-10T03:32:57.057Z,0.32
2023-04-10T03:33:57.287Z,0.43
2023-04-10T03:34:57.042Z,0.47
2023-04-10T03:35:57.109Z,0.56
2023-04-10T03:36:57.043Z,0.44
2023-04-10T03:37:57.036Z,0.36
2023-04-10T03:38:57.017Z,0.32
2023-04-10T03:39:57.017Z,0.29
2023-04-10T03:40:57.021Z,0.22
2023-04-10T03:41:57.028Z,0.25
2023-04-10T03:42:56.983Z,0.11
2023-04-10T03:43:57.135Z,0.07
2023-04-10T03:44:56.969Z,0.07
2023-04-10T03:45:56.976Z,0.21
2023-04-10T03:46:57.008Z,0.15
2023-04-10T03:47:57.048Z,0.25
2023-04-10T03:48:56.961Z,0.37
2023-04-10T03:49:56.947Z,0.28
2023-04-10T03:50:56.936Z,0.36
2023-04-10T03:51:56.935Z,0.31
2023-04-10T03:52:56.919Z,0.25
2023-04-10T03:53:57.073Z,0.31
2023-04-10T03:54:56.913Z,0.11
2023-04-10T03:55:56.917Z,0.21
2023-04-10T03:56:56.888Z,0.18
2023-04-10T03:57:56.902Z,0.12
2023-04-10T03:58:56.887Z,0.08
2023-04-10T03:59:56.877Z,0.12
2023-04-10T04:00:56.863Z,0.12
2023-04-10T04:01:56.939Z,0.05
2023-04-10T04:02:56.942Z,0.11
2023-04-10T04:03:57.083Z,0.11
2023-04-10T04:04:56.902Z,0.12
2023-04-10T04:05:56.850Z,0.11
2023-04-10T04:06:56.834Z,0.01
2023-04-10T04:07:56.831Z,0.15
2023-04-10T04:08:56.823Z,0.12
2023-04-10T04:09:56.819Z,0.08
2023-04-10T04:10:56.831Z,0.11
2023-04-10T04:11:56.830Z,0.22
2023-04-10T04:12:56.783Z,0.22
2023-04-10T04:13:56.820Z,0.25
2023-04-10T04:14:56.777Z,0.22
2023-04-10T04:15:56.772Z,0.23
2023-04-10T04:16:56.869Z,0.29
2023-04-10T04:17:56.818Z,0.32
2023-04-10T04:18:56.800Z,0.29
2023-04-10T04:19:56.761Z,0.25
2023-04-10T04:20:56.746Z,0.31
2023-04-10T04:21:56.746Z,0.29
2023-04-10T04:22:56.720Z,0.25
2023-04-10T04:23:56.737Z,0.28
2023-04-10T04:24:56.719Z,0.26
2023-04-10T04:25:56.717Z,0.25
2023-04-10T04:26:56.747Z,0.19
2023-04-10T04:27:56.697Z,0.25
2023-04-10T04:28:56.677Z,0.28
2023-04-10T04:29:56.681Z,0.23
2023-04-10T04:30:56.662Z,0.16
2023-04-10T04:31:56.711Z,0.28
2023-04-10T04:32:56.751Z,0.26
2023-04-10T04:33:56.696Z,0.12
2023-04-10T04:34:56.649Z,0.18
2023-04-10T04:35:56.671Z,0.12
2023-04-10T04:36:56.625Z,0.16
2023-04-10T04:37:56.652Z,0.11
2023-04-10T04:38:56.628Z,0.16
2023-04-10T04:39:56.631Z,0.08
2023-04-10T04:40:56.648Z,0.23
2023-04-10T04:41:56.597Z,0.11
2023-04-10T04:42:56.590Z,0.10
2023-04-10T04:43:56.670Z,0.23
2023-04-10T04:44:56.567Z,0.26
2023-04-10T04:45:56.620Z,0.26
2023-04-10T04:46:56.578Z,0.28
2023-04-10T04:47:56.588Z,0.36
2023-04-10T04:48:56.573Z,0.44
2023-04-10T04:49:56.569Z,0.59
2023-04-10T04:50:56.536Z,0.69
2023-04-10T04:51:56.560Z,0.68
2023-04-10T04:52:56.536Z,0.87
2023-04-10T04:53:56.688Z,1.04
2023-04-10T04:54:56.526Z,1.14
2023-04-10T04:55:56.538Z,1.37
2023-04-10T04:56:56.512Z,1.53
2023-04-10T04:57:56.489Z,1.68
2023-04-10T04:58:56.571Z,1.76
2023-04-10T04:59:56.524Z,2.08
2023-04-10T05:00:56.506Z,2.28
2023-04-10T05:01:56.663Z,2.49
2023-04-10T05:02:56.524Z,2.69
2023-04-10T05:03:56.517Z,2.98
2023-04-10T05:04:56.445Z,3.25
2023-04-10T05:05:56.509Z,3.25
2023-04-10T05:06:56.428Z,3.10
2023-04-10T05:07:56.450Z,3.10
2023-04-10T05:08:56.593Z,3.28
2023-04-10T05:09:56.414Z,3.53
2023-04-10T05:10:56.401Z,3.70
2023-04-10T05:11:56.431Z,3.77
2023-04-10T05:12:56.416Z,3.96
2023-04-10T05:13:56.399Z,3.65
2023-04-10T05:14:56.392Z,3.47
2023-04-10T05:15:56.397Z,3.45
2023-04-10T05:16:56.379Z,3.78
2023-04-10T05:17:56.518Z,3.70
2023-04-10T05:18:56.679Z,3.55
2023-04-10T05:19:56.383Z,3.51
2023-04-10T05:20:56.346Z,3.45
2023-04-10T05:21:56.374Z,3.65
2023-04-10T05:22:56.340Z,3.66
2023-04-10T05:23:56.384Z,3.60
2023-04-10T05:24:56.309Z,3.34
2023-04-10T05:25:56.339Z,3.48
2023-04-10T05:26:56.314Z,3.70
2023-04-10T05:27:56.308Z,4.06
2023-04-10T05:28:56.532Z,4.02
2023-04-10T05:29:56.293Z,3.99
2023-04-10T05:30:56.353Z,3.98
2023-04-10T05:31:56.290Z,4.16
2023-04-10T05:32:56.326Z,4.19
2023-04-10T05:33:56.276Z,4.08
2023-04-10T05:34:56.259Z,4.41
2023-04-10T05:35:56.293Z,4.42
2023-04-10T05:36:58.772Z,4.67
2023-04-10T05:37:56.247Z,4.59
2023-04-10T05:38:56.536Z,4.71
2023-04-10T05:39:56.230Z,4.97
2023-04-10T05:40:56.239Z,4.84
2023-04-10T05:41:56.226Z,4.78
2023-04-10T05:42:56.220Z,4.31
2023-04-10T05:43:56.219Z,4.01
2023-04-10T05:44:56.202Z,3.94
2023-04-10T05:45:56.246Z,4.28
2023-04-10T05:46:56.196Z,4.68
2023-04-10T05:47:56.226Z,4.90
2023-04-10T05:48:56.486Z,5.28
2023-04-10T05:49:56.173Z,4.97
2023-04-10T05:50:56.158Z,4.86
2023-04-10T05:51:56.174Z,5.07
2023-04-10T05:52:56.151Z,5.17
2023-04-10T05:53:56.161Z,5.23
2023-04-10T05:54:56.126Z,5.00
2023-04-10T05:55:56.138Z,4.56
2023-04-10T05:56:56.115Z,4.56
2023-04-10T05:57:56.134Z,4.66
2023-04-10T05:58:56.213Z,5.04
2023-04-10T05:59:56.160Z,4.92
2023-04-10T06:00:56.117Z,5.30
2023-04-10T06:01:56.155Z,5.87
2023-04-10T06:02:56.145Z,6.02
2023-04-10T06:03:56.240Z,6.41
2023-04-10T06:04:56.159Z,6.72
2023-04-10T06:05:56.086Z,7.00
2023-04-10T06:06:56.061Z,7.25
2023-04-10T06:07:58.192Z,7.21
2023-04-10T06:08:56.180Z,7.40
2023-04-10T06:09:56.080Z,7.77
2023-04-10T06:10:56.054Z,7.95
2023-04-10T06:11:56.060Z,8.38
2023-04-10T06:12:56.043Z,8.30
2023-04-10T06:13:56.039Z,7.77
2023-04-10T06:14:56.035Z,7.61
2023-04-10T06:15:56.071Z,6.99
2023-04-10T06:16:56.004Z,6.70
2023-04-10T06:17:56.025Z,6.85
2023-04-10T06:18:56.289Z,6.72
2023-04-10T06:19:55.997Z,6.59
2023-04-10T06:21:03.009Z,6.59
2023-04-10T06:21:56.011Z,6.87
2023-04-10T06:22:55.963Z,7.42
2023-04-10T06:23:56.332Z,7.70
2023-04-10T06:24:55.960Z,7.60
2023-04-10T06:25:55.985Z,7.95
2023-04-10T06:26:55.962Z,8.27
2023-04-10T06:27:55.963Z,8.41
2023-04-10T06:28:56.150Z,8.41
2023-04-10T06:29:55.961Z,8.82
2023-04-10T06:30:55.997Z,8.64
2023-04-10T06:31:55.997Z,8.16
2023-04-10T06:32:55.991Z,7.98
2023-04-10T06:33:55.930Z,8.05
2023-04-10T06:34:55.896Z,8.06
2023-04-10T06:35:55.951Z,7.63
2023-04-10T06:36:56.040Z,7.18
2023-04-10T06:37:55.874Z,7.51
2023-04-10T06:38:56.127Z,7.88
2023-04-10T06:39:55.887Z,7.73
2023-04-10T06:40:55.841Z,7.91
2023-04-10T06:41:55.891Z,8.53
2023-04-10T06:42:55.854Z,8.92
2023-04-10T06:43:55.844Z,8.28
2023-04-10T06:44:55.844Z,8.42
2023-04-10T06:45:55.834Z,7.91
2023-04-10T06:46:55.858Z,7.73
2023-04-10T06:47:55.865Z,8.33
2023-04-10T06:48:55.963Z,8.63
2023-04-10T06:49:55.827Z,8.45
2023-04-10T06:50:55.765Z,8.27
2023-04-10T06:51:55.798Z,8.13
2023-04-10T06:52:55.810Z,7.72
2023-04-10T06:53:55.776Z,8.08
2023-04-10T06:54:55.759Z,7.76
2023-04-10T06:55:55.771Z,7.82
2023-04-10T06:56:55.754Z,8.60
2023-04-10T06:57:55.758Z,9.19
2023-04-10T06:58:55.953Z,9.64
2023-04-10T06:59:55.753Z,9.92
2023-04-10T07:00:55.752Z,9.84
2023-04-10T07:01:55.756Z,9.32
2023-04-10T07:02:55.720Z,9.55
2023-04-10T07:03:55.708Z,10.12
2023-04-10T07:04:55.686Z,10.05
2023-04-10T07:05:55.667Z,9.86
2023-04-10T07:06:55.661Z,10.20
2023-04-10T07:07:55.678Z,10.57
2023-04-10T07:08:55.902Z,10.30
2023-04-10T07:09:55.661Z,9.73
2023-04-10T07:10:58.312Z,9.72
2023-04-10T07:11:55.662Z,9.66
2023-04-10T07:12:55.628Z,9.18
2023-04-10T07:13:55.622Z,9.82
2023-04-10T07:14:55.606Z,11.02
2023-04-10T07:15:55.665Z,11.33
2023-04-10T07:16:55.571Z,10.99
2023-04-10T07:17:55.622Z,10.67
2023-04-10T07:18:55.830Z,11.17
2023-04-10T07:19:55.586Z,11.80
2023-04-10T07:20:55.525Z,11.88
2023-04-10T07:21:55.563Z,12.47
2023-04-10T07:22:55.520Z,11.88
2023-04-10T07:23:55.537Z,11.59
2023-04-10T07:24:55.502Z,12.13
2023-04-10T07:25:55.529Z,12.86
2023-04-10T07:26:55.516Z,13.41
2023-04-10T07:27:55.495Z,13.44
2023-04-10T07:28:55.701Z,13.35
2023-04-10T07:29:55.480Z,11.88
2023-04-10T07:30:55.475Z,12.20
2023-04-10T07:31:55.585Z,12.91
2023-04-10T07:32:55.549Z,13.03
2023-04-10T07:33:55.457Z,12.61
2023-04-10T07:34:55.444Z,12.45
2023-04-10T07:35:55.509Z,12.47
2023-04-10T07:36:55.418Z,12.17
2023-04-10T07:37:55.440Z,12.53
2023-04-10T07:38:55.600Z,12.36
2023-04-10T07:39:55.427Z,12.68
2023-04-10T07:40:55.387Z,13.16
2023-04-10T07:41:55.386Z,13.57
2023-04-10T07:42:55.410Z,14.26
2023-04-10T07:43:55.408Z,15.15
2023-04-10T07:44:55.348Z,15.46
2023-04-10T07:45:55.362Z,14.25
2023-04-10T07:46:55.331Z,13.99
2023-04-10T07:47:55.358Z,14.25
2023-04-10T07:48:55.840Z,14.70
2023-04-10T07:49:55.312Z,14.96
2023-04-10T07:50:55.302Z,15.51
2023-04-10T07:51:55.326Z,15.04
2023-04-10T07:52:55.300Z,14.10
2023-04-10T07:53:55.288Z,14.30
2023-04-10T07:54:55.276Z,15.10
2023-04-10T07:55:55.299Z,15.46
2023-04-10T07:56:55.249Z,16.15
2023-04-10T07:57:55.273Z,16.79
2023-04-10T07:58:55.484Z,16.17
2023-04-10T07:59:55.249Z,15.28
2023-04-10T08:00:55.256Z,15.21
2023-04-10T08:01:55.274Z,14.68
2023-04-10T08:02:55.384Z,13.99
2023-04-10T08:03:55.317Z,14.11
2023-04-10T08:04:55.553Z,14.89
2023-04-10T08:05:55.234Z,14.60
2023-04-10T08:06:55.199Z,14.33
2023-04-10T08:07:55.187Z,14.55
2023-04-10T08:08:55.346Z,15.35
2023-04-10T08:09:55.171Z,15.35
2023-04-10T08:10:55.164Z,16.12
2023-04-10T08:11:55.175Z,16.50
2023-04-10T08:12:55.133Z,16.68
2023-04-10T08:13:55.246Z,16.35
2023-04-10T08:14:55.123Z,15.75
2023-04-10T08:15:55.162Z,16.42
2023-04-10T08:16:55.146Z,16.79
2023-04-10T08:17:55.197Z,16.08
2023-04-10T08:18:55.250Z,16.00
2023-04-10T08:19:55.110Z,15.92
2023-04-10T08:20:55.120Z,15.11
2023-04-10T08:21:55.077Z,14.17
2023-04-10T08:22:56.254Z,14.51
2023-04-10T08:23:55.082Z,14.62
2023-04-10T08:24:55.061Z,13.99
2023-04-10T08:25:55.074Z,14.55
2023-04-10T08:26:55.087Z,14.92
2023-04-10T08:27:55.051Z,14.47
2023-04-10T08:28:55.151Z,14.50
2023-04-10T08:29:55.018Z,14.92
2023-04-10T08:30:55.103Z,14.82
2023-04-10T08:31:55.025Z,15.11
2023-04-10T08:32:55.006Z,15.67
2023-04-10T08:33:55.355Z,15.76
2023-04-10T08:34:54.990Z,16.39
2023-04-10T08:35:55.009Z,16.26
2023-04-10T08:36:55.019Z,15.42
2023-04-10T08:38:11.678Z,14.65
2023-04-10T08:38:55.976Z,14.69
2023-04-10T08:39:54.966Z,15.17
2023-04-10T08:40:54.926Z,15.70
2023-04-10T08:41:54.949Z,16.58
2023-04-10T08:42:54.915Z,17.16
2023-04-10T08:43:55.227Z,17.20
2023-04-10T08:44:54.910Z,17.02
2023-04-10T08:45:54.962Z,17.02
2023-04-10T08:46:54.897Z,17.48
2023-04-10T08:47:54.915Z,17.85
2023-04-10T08:48:54.853Z,18.28
2023-04-10T08:49:54.874Z,18.86
2023-04-10T08:50:54.850Z,19.09
2023-04-10T08:51:54.898Z,18.83
2023-04-10T08:52:54.841Z,19.11
2023-04-10T08:53:55.000Z,19.58
2023-04-10T08:54:54.824Z,19.30
2023-04-10T08:55:54.833Z,18.95
2023-04-10T08:56:54.826Z,18.25
2023-04-10T08:58:01.075Z,18.33
2023-04-10T08:58:55.796Z,18.43
2023-04-10T08:59:54.815Z,18.43
2023-04-10T09:00:54.819Z,17.60
2023-04-10T09:01:54.892Z,17.76
2023-04-10T09:02:54.947Z,18.00
2023-04-10T09:03:55.127Z,18.88
2023-04-10T09:04:54.978Z,19.15
2023-04-10T09:05:54.765Z,18.73
2023-04-10T09:06:54.753Z,18.34
2023-04-10T09:07:54.805Z,18.23
2023-04-10T09:08:54.757Z,18.49
2023-04-10T09:09:54.763Z,18.81
2023-04-10T09:10:56.328Z,16.54
2023-04-10T09:11:54.729Z,16.56
2023-04-10T09:12:54.749Z,16.97
2023-04-10T09:13:54.890Z,17.26
2023-04-10T09:14:54.703Z,17.59
2023-04-10T09:15:54.812Z,17.65
2023-04-10T09:16:54.685Z,17.76
2023-04-10T09:17:54.724Z,17.79
2023-04-10T09:18:54.666Z,17.48
2023-04-10T09:19:54.702Z,17.15
2023-04-10T09:20:54.635Z,16.99
2023-04-10T09:21:54.690Z,17.04
2023-04-10T09:22:54.641Z,17.15
2023-04-10T09:23:54.942Z,17.05
2023-04-10T09:24:54.648Z,17.15
2023-04-10T09:25:54.621Z,17.52
2023-04-10T09:26:54.584Z,16.74
2023-04-10T09:27:54.603Z,16.47
2023-04-10T09:28:54.571Z,17.08
2023-04-10T09:29:54.584Z,17.41
2023-04-10T09:30:54.619Z,17.70
2023-04-10T09:31:54.602Z,17.68
2023-04-10T09:32:54.621Z,17.65
2023-04-10T09:33:54.695Z,18.04
2023-04-10T09:34:54.543Z,17.72
2023-04-10T09:35:54.536Z,17.57
2023-04-10T09:36:54.516Z,17.64
2023-04-10T09:37:54.577Z,17.63
2023-04-10T09:38:54.506Z,17.82
2023-04-10T09:39:54.529Z,17.94
2023-04-10T09:40:54.938Z,17.90
2023-04-10T09:41:54.510Z,17.95
2023-04-10T09:42:54.471Z,17.52
2023-04-10T09:43:54.768Z,17.23
2023-04-10T09:44:54.466Z,16.94
2023-04-10T09:45:54.500Z,17.05
2023-04-10T09:46:54.722Z,16.76
2023-04-10T09:47:54.530Z,16.91
2023-04-10T09:48:54.433Z,16.33
2023-04-10T09:49:54.465Z,15.92
2023-04-10T09:50:54.417Z,16.75
2023-04-10T09:51:54.492Z,16.86
2023-04-10T09:52:54.437Z,16.68
2023-04-10T09:53:54.531Z,17.15
2023-04-10T09:54:54.441Z,17.51
2023-04-10T09:55:54.400Z,16.99
2023-04-10T09:56:54.379Z,17.11
2023-04-10T09:57:54.401Z,17.63
2023-04-10T09:58:54.564Z,16.93
2023-04-10T09:59:54.425Z,16.41
2023-04-10T10:00:54.359Z,16.53
2023-04-10T10:01:54.425Z,16.57
2023-04-10T10:02:54.510Z,16.91
2023-04-10T10:03:54.434Z,17.27
2023-04-10T10:04:54.370Z,17.70
2023-04-10T10:05:54.337Z,17.44
2023-04-10T10:06:54.322Z,17.56
2023-04-10T10:07:54.305Z,17.86
2023-04-10T10:08:54.568Z,17.90
2023-04-10T10:09:54.339Z,17.54
2023-04-10T10:10:54.310Z,16.75
2023-04-10T10:11:54.295Z,17.04
2023-04-10T10:12:54.295Z,16.91
2023-04-10T10:13:54.320Z,17.22
2023-04-10T10:14:54.255Z,17.05
2023-04-10T10:15:54.289Z,17.48
2023-04-10T10:16:54.267Z,17.33
2023-04-10T10:17:54.279Z,17.24
2023-04-10T10:18:54.483Z,17.08
2023-04-10T10:19:54.217Z,16.71
2023-04-10T10:20:54.211Z,16.76
2023-04-10T10:21:54.231Z,17.16
2023-04-10T10:22:54.198Z,17.46
2023-04-10T10:23:54.250Z,17.31
2023-04-10T10:24:54.172Z,17.42
2023-04-10T10:25:54.178Z,17.54
2023-04-10T10:26:54.155Z,17.27
2023-04-10T10:27:54.186Z,17.39
2023-04-10T10:28:54.490Z,16.58
2023-04-10T10:29:54.145Z,16.69
2023-04-10T10:30:54.134Z,16.66
2023-04-10T10:31:54.284Z,16.93
2023-04-10T10:32:54.164Z,17.04
2023-04-10T10:33:54.143Z,17.22
2023-04-10T10:34:54.101Z,16.91
2023-04-10T10:35:54.105Z,16.96
2023-04-10T10:36:54.120Z,16.74
2023-04-10T10:37:54.109Z,17.02
2023-04-10T10:38:54.278Z,17.42
2023-04-10T10:39:54.087Z,17.54
2023-04-10T10:40:54.057Z,17.12
2023-04-10T10:41:54.069Z,17.19
2023-04-10T10:42:54.036Z,16.79
2023-04-10T10:43:54.063Z,16.36
2023-04-10T10:44:54.053Z,16.08
2023-04-10T10:45:54.063Z,16.39
2023-04-10T10:46:54.021Z,16.61
2023-04-10T10:47:54.036Z,16.91
2023-04-10T10:48:54.188Z,16.99
2023-04-10T10:49:54.054Z,17.05
2023-04-10T10:50:54.047Z,17.06
2023-04-10T10:51:53.994Z,16.94
2023-04-10T10:52:53.980Z,17.20
2023-04-10T10:53:53.979Z,17.04
2023-04-10T10:54:59.425Z,17.16
2023-04-10T10:55:54.989Z,17.64
2023-04-10T10:56:53.928Z,17.72
2023-04-10T10:57:53.959Z,17.68
2023-04-10T10:58:54.261Z,17.71
2023-04-10T10:59:53.922Z,17.51
2023-04-10T11:00:53.913Z,16.94
2023-04-10T11:01:54.103Z,16.84
2023-04-10T11:02:54.014Z,16.84
2023-04-10T11:03:54.083Z,17.34
2023-04-10T11:04:53.892Z,17.48
2023-04-10T11:05:53.903Z,17.72
2023-04-10T11:06:53.896Z,18.13
2023-04-10T11:07:53.895Z,18.25
2023-04-10T11:08:54.076Z,18.43
2023-04-10T11:09:53.887Z,18.08
2023-04-10T11:10:53.835Z,17.79
2023-04-10T11:11:53.848Z,17.54
2023-04-10T11:12:53.844Z,17.04
2023-04-10T11:13:53.862Z,17.06
2023-04-10T11:14:53.798Z,17.41
2023-04-10T11:15:53.826Z,17.02
2023-04-10T11:16:53.848Z,17.01
2023-04-10T11:17:53.835Z,17.09
2023-04-10T11:19:06.261Z,17.30
2023-04-10T11:19:53.786Z,17.41
2023-04-10T11:20:53.769Z,17.33
2023-04-10T11:21:53.788Z,17.65
2023-04-10T11:22:53.741Z,17.85
2023-04-10T11:23:53.779Z,17.86
2023-04-10T11:24:53.736Z,17.51
2023-04-10T11:25:53.799Z,17.56
2023-04-10T11:26:53.716Z,17.74
2023-04-10T11:27:53.730Z,17.79
2023-04-10T11:28:53.899Z,17.76
2023-04-10T11:29:53.702Z,17.59
2023-04-10T11:30:53.719Z,17.29
2023-04-10T11:31:53.746Z,17.42
2023-04-10T11:32:53.712Z,17.39
2023-04-10T11:33:53.686Z,17.64
2023-04-10T11:34:53.649Z,17.57
2023-04-10T11:35:53.765Z,17.71
2023-04-10T11:36:53.658Z,17.98
2023-04-10T11:37:53.683Z,18.38
2023-04-10T11:38:53.946Z,18.23
2023-04-10T11:39:53.658Z,17.71
2023-04-10T11:40:53.610Z,17.70
2023-04-10T11:41:53.759Z,17.80
2023-04-10T11:42:53.601Z,17.86
2023-04-10T11:43:53.612Z,18.16
2023-04-10T11:44:53.620Z,18.03
2023-04-10T11:45:53.626Z,17.79
2023-04-10T11:46:53.576Z,17.72
2023-04-10T11:47:53.606Z,17.64
2023-04-10T11:48:53.673Z,18.01
2023-04-10T11:49:53.570Z,18.41
2023-04-10T11:50:53.550Z,18.19
2023-04-10T11:51:53.556Z,17.89
2023-04-10T11:52:55.267Z,17.80
2023-04-10T11:53:53.560Z,17.80
2023-04-10T11:54:53.543Z,17.83
2023-04-10T11:55:53.529Z,17.74
2023-04-10T11:56:53.496Z,17.68
2023-04-10T11:57:53.501Z,17.52
2023-04-10T11:58:53.777Z,17.45
2023-04-10T11:59:53.509Z,17.14
2023-04-10T12:00:53.487Z,17.16
2023-04-10T12:01:53.523Z,17.59
2023-04-10T12:02:53.813Z,17.71
2023-04-10T12:03:53.590Z,17.97
2023-04-10T12:04:53.491Z,18.13
2023-04-10T12:05:53.463Z,18.00
2023-04-10T12:06:53.454Z,17.64
2023-04-10T12:07:53.439Z,17.86
2023-04-10T12:08:53.929Z,18.52
2023-04-10T12:09:53.448Z,18.88
2023-04-10T12:10:53.431Z,19.34
2023-04-10T12:11:53.462Z,19.39
2023-04-10T12:12:53.390Z,18.99
2023-04-10T12:13:53.383Z,18.66
2023-04-10T12:14:53.369Z,18.13
2023-04-10T12:15:53.556Z,18.15
2023-04-10T12:16:53.352Z,18.28
2023-04-10T12:17:53.416Z,18.05
2023-04-10T12:18:53.584Z,18.11
2023-04-10T12:19:53.368Z,18.44
2023-04-10T12:22:00.182Z,18.44
2023-04-10T12:23:00.198Z,18.65
2023-04-10T12:24:00.163Z,18.66
2023-04-10T12:25:00.170Z,18.43
2023-04-10T12:26:00.192Z,18.25
2023-04-10T12:27:01.137Z,18.10
2023-04-10T12:28:00.163Z,18.19
2023-04-10T12:29:00.159Z,18.44
2023-04-10T12:30:00.180Z,18.73
2023-04-10T12:31:00.165Z,18.31
2023-04-10T12:32:01.061Z,17.94
2023-04-10T12:33:00.181Z,17.98
2023-04-10T12:34:00.153Z,18.13
2023-04-10T12:35:00.163Z,18.37
2023-04-10T12:36:00.150Z,18.53
2023-04-10T12:37:00.101Z,18.28
2023-04-10T12:38:00.104Z,18.34
2023-04-10T12:39:00.134Z,18.19
2023-04-10T12:40:00.070Z,18.38
2023-04-10T12:41:00.059Z,18.40
2023-04-10T12:42:00.104Z,18.70
2023-04-10T12:43:00.244Z,18.93
2023-04-10T12:44:00.042Z,18.90
2023-04-10T12:45:00.043Z,18.05
2023-04-10T12:46:00.066Z,18.18
2023-04-10T12:47:00.044Z,18.43
2023-04-10T12:48:00.041Z,18.41
2023-04-10T12:49:00.014Z,18.26
2023-04-10T12:49:59.987Z,18.31
2023-04-10T12:50:59.995Z,18.38
2023-04-10T12:52:00.008Z,18.00
2023-04-10T12:52:59.991Z,17.94
2023-04-10T12:53:59.965Z,18.19
2023-04-10T12:54:59.979Z,18.13
2023-04-10T12:55:59.932Z,17.79
2023-04-10T12:56:59.965Z,17.68
2023-04-10T12:57:59.922Z,18.29
2023-04-10T12:58:59.949Z,18.65
2023-04-10T12:59:59.910Z,18.45
2023-04-10T13:00:59.920Z,18.20
2023-04-10T13:02:00.006Z,18.63
2023-04-10T13:03:00.138Z,18.34
2023-04-10T13:03:59.938Z,18.37
2023-04-10T13:04:59.911Z,18.11
2023-04-10T13:05:59.875Z,18.45
2023-04-10T13:06:59.887Z,18.20
2023-04-10T13:07:59.845Z,18.11